createdAt,value
2018-12-17T00:00:19.506Z,0.20
2018-12-17T00:02:53.823Z,0.20
2018-12-17T00:05:28.648Z,0.20
2018-12-17T00:08:02.689Z,0.20
2018-12-17T00:13:11.405Z,0.10
2018-12-17T00:15:47.573Z,0.20
2018-12-17T00:18:21.818Z,0.20
2018-12-17T00:20:52.650Z,0.20
2018-12-17T00:25:57.582Z,0.30
2018-12-17T00:28:28.281Z,0.40
2018-12-17T00:31:03.138Z,0.30
2018-12-17T00:33:37.958Z,0.30
2018-12-17T00:36:12.778Z,0.30
2018-12-17T00:38:47.602Z,0.40
2018-12-17T00:41:21.626Z,0.30
2018-12-17T00:43:57.773Z,0.30
2018-12-17T00:46:32.614Z,0.30
2018-12-17T00:49:07.321Z,0.30
2018-12-17T00:51:42.157Z,0.30
2018-12-17T00:54:17.029Z,0.30
2018-12-17T00:56:47.854Z,0.30
2018-12-17T00:59:22.674Z,0.30
2018-12-17T01:01:57.869Z,0.30
2018-12-17T01:04:31.775Z,0.30
2018-12-17T01:41:05.193Z,0.20
2018-12-17T01:43:40.171Z,0.30
2018-12-17T01:46:14.069Z,0.30
2018-12-17T01:48:48.198Z,0.50
2018-12-17T01:51:19.122Z,0.40
2018-12-17T01:53:55.894Z,0.40
2018-12-17T01:56:29.930Z,0.40
2018-12-17T01:59:04.109Z,0.40
2018-12-17T02:09:23.339Z,0.40
2018-12-17T02:11:58.173Z,0.50
2018-12-17T02:14:33.001Z,0.40
2018-12-17T02:17:07.349Z,0.40
2018-12-17T02:19:41.973Z,0.40
2018-12-17T02:22:12.864Z,0.40
2018-12-17T02:24:46.813Z,0.40
2018-12-17T02:27:20.734Z,0.40
2018-12-17T02:37:38.525Z,0.50
2018-12-17T02:40:12.805Z,0.50
2018-12-17T02:42:44.458Z,0.40
2018-12-17T02:45:19.322Z,0.40
2018-12-17T02:47:54.050Z,0.40
2018-12-17T02:50:28.078Z,0.40
2018-12-17T02:53:02.123Z,0.40
2018-12-17T02:55:36.934Z,0.40
2018-12-17T02:58:10.838Z,0.40
2018-12-17T03:00:44.981Z,0.40
2018-12-17T03:03:19.898Z,0.50
2018-12-17T03:05:50.785Z,0.40
2018-12-17T03:08:25.190Z,0.40
2018-12-17T03:10:59.323Z,0.50
2018-12-17T03:13:34.093Z,0.60
2018-12-17T03:16:08.918Z,0.50
2018-12-17T03:18:43.534Z,0.50
2018-12-17T03:21:17.660Z,0.50
2018-12-17T03:23:53.657Z,0.50
2018-12-17T03:36:46.262Z,0.50
2018-12-17T03:39:20.175Z,0.50
2018-12-17T03:41:54.975Z,0.50
2018-12-17T03:44:28.879Z,0.50
2018-12-17T03:47:03.149Z,0.50
2018-12-17T03:49:37.855Z,0.50
2018-12-17T03:52:08.828Z,0.50
2018-12-17T03:54:43.493Z,0.50
2018-12-17T03:57:17.553Z,0.50
2018-12-17T03:59:52.409Z,0.50
2018-12-17T04:02:28.502Z,0.50
2018-12-17T04:04:59.457Z,0.50
2018-12-17T04:07:33.733Z,0.40
2018-12-17T04:10:08.513Z,0.50
2018-12-17T04:12:42.625Z,0.50
2018-12-17T04:15:17.257Z,0.50
2018-12-17T04:17:51.277Z,0.50
2018-12-17T04:20:26.118Z,0.50
2018-12-17T04:22:58.025Z,0.50
2018-12-17T04:25:32.855Z,0.50
2018-12-17T04:28:09.115Z,0.50
2018-12-17T04:30:43.238Z,0.60
2018-12-17T04:33:18.267Z,0.60
2018-12-17T04:35:53.061Z,0.60
2018-12-17T04:38:26.998Z,0.60
2018-12-17T04:41:01.796Z,0.60
2018-12-17T04:43:37.637Z,0.60
2018-12-17T04:46:12.474Z,0.70
2018-12-17T04:48:46.613Z,0.60
2018-12-17T04:51:20.681Z,0.50
2018-12-17T04:53:57.610Z,0.60
2018-12-17T04:56:32.422Z,0.60
2018-12-17T04:59:06.347Z,0.70
2018-12-17T05:01:40.557Z,0.60
2018-12-17T05:04:14.683Z,0.60
2018-12-17T05:06:49.493Z,0.60
2018-12-17T05:09:23.440Z,0.70
2018-12-17T05:11:59.403Z,0.60
2018-12-17T05:14:34.238Z,0.60
2018-12-17T05:17:08.246Z,0.60
2018-12-17T05:19:42.361Z,0.40
2018-12-17T05:22:16.637Z,0.40
2018-12-17T05:24:50.544Z,0.40
2018-12-17T05:27:24.555Z,0.40
2018-12-17T05:29:55.273Z,0.40
2018-12-17T05:32:29.293Z,0.40
2018-12-17T05:35:04.479Z,0.50
2018-12-17T05:37:38.895Z,0.50
2018-12-17T05:40:12.921Z,0.50
2018-12-17T05:42:47.906Z,0.50
2018-12-17T05:45:22.665Z,0.50
2018-12-17T05:47:56.790Z,0.50
2018-12-17T05:50:30.949Z,0.50
2018-12-17T05:53:02.616Z,0.50
2018-12-17T05:55:33.316Z,0.50
2018-12-17T05:58:07.234Z,0.50
2018-12-17T06:00:41.785Z,0.60
2018-12-17T06:03:18.553Z,0.50
2018-12-17T06:05:49.353Z,0.50
2018-12-17T06:08:23.291Z,0.50
2018-12-17T06:10:57.370Z,0.50
2018-12-17T06:13:27.342Z,0.50
2018-12-17T06:16:01.554Z,0.50
2018-12-17T06:18:36.497Z,0.60
2018-12-17T06:23:42.145Z,0.60
2018-12-17T06:26:16.065Z,0.60
2018-12-17T06:28:50.095Z,0.60
2018-12-17T06:31:24.932Z,0.60
2018-12-17T06:34:00.126Z,0.60
2018-12-17T07:31:45.401Z,0.90
2018-12-17T07:36:54.186Z,0.80
2018-12-17T08:03:31.034Z,1.10
2018-12-17T08:06:05.854Z,1.30
2018-12-17T08:08:39.882Z,1.30
2018-12-17T08:24:05.054Z,1.60
2018-12-17T08:26:35.874Z,1.60
2018-12-17T08:39:26.750Z,1.90
2018-12-17T08:42:01.694Z,1.90
2018-12-17T08:44:36.405Z,1.90
2018-12-17T09:58:41.017Z,2.90
2018-12-17T10:21:55.097Z,3.50
2018-12-17T10:27:03.941Z,3.80
2018-12-17T10:29:38.050Z,3.90
2018-12-17T10:32:14.123Z,3.70
2018-12-17T10:34:48.133Z,3.70
2018-12-17T10:37:22.195Z,3.60
2018-12-17T10:39:56.422Z,3.70
2018-12-17T10:42:30.666Z,3.80
2018-12-17T10:45:05.430Z,3.90
2018-12-17T10:47:39.916Z,3.70
2018-12-17T10:50:13.820Z,3.50
2018-12-17T10:52:48.650Z,3.50
2018-12-17T10:55:22.857Z,3.50
2018-12-17T10:57:56.797Z,3.60
2018-12-17T11:00:39.501Z,3.50
2018-12-17T11:03:14.640Z,3.60
2018-12-17T11:05:49.409Z,3.60
2018-12-17T11:08:24.306Z,3.70
2018-12-17T11:10:58.234Z,3.60
2018-12-17T11:13:34.349Z,3.60
2018-12-17T11:16:08.723Z,3.70
2018-12-17T11:18:43.553Z,3.60
2018-12-17T11:21:17.677Z,3.60
2018-12-17T11:23:51.613Z,3.60
2018-12-17T11:26:25.522Z,3.60
2018-12-17T11:28:59.595Z,3.50
2018-12-17T11:31:30.349Z,3.50
2018-12-17T11:34:04.475Z,3.50
2018-12-17T11:36:38.622Z,3.50
2018-12-17T11:39:14.469Z,3.50
2018-12-17T11:41:49.594Z,3.50
2018-12-17T11:44:23.626Z,3.60
2018-12-17T11:46:57.670Z,3.60
2018-12-17T11:49:31.617Z,3.50
2018-12-17T11:52:06.654Z,3.50
2018-12-17T11:54:40.887Z,3.60
2018-12-17T11:57:19.638Z,3.60
2018-12-17T11:59:54.454Z,3.60
2018-12-17T12:02:31.085Z,3.70
2018-12-17T12:05:05.045Z,3.60
2018-12-17T12:07:39.796Z,3.70
2018-12-17T12:10:14.547Z,3.60
2018-12-17T12:12:48.572Z,3.60
2018-12-17T12:15:22.506Z,3.50
2018-12-17T12:17:57.010Z,3.50
2018-12-17T12:20:31.038Z,3.50
2018-12-17T12:23:07.069Z,3.40
2018-12-17T12:25:41.819Z,3.50
2018-12-17T12:28:15.829Z,3.60
2018-12-17T12:30:49.905Z,3.70
2018-12-17T12:33:24.740Z,3.70
2018-12-17T12:35:58.676Z,3.70
2018-12-17T12:38:33.526Z,3.60
2018-12-17T12:41:07.516Z,3.60
2018-12-17T12:43:42.316Z,3.50
2018-12-17T12:46:16.412Z,3.50
2018-12-17T12:48:51.045Z,3.60
2018-12-17T12:51:24.974Z,3.50
2018-12-17T12:54:00.304Z,3.60
2018-12-17T12:56:34.350Z,3.60
2018-12-17T12:59:08.257Z,3.80
2018-12-17T13:01:43.578Z,3.80
2018-12-17T13:04:18.433Z,3.90
2018-12-17T13:06:52.369Z,4.00
2018-12-17T13:09:23.074Z,4.10
2018-12-17T13:11:58.386Z,4.00
2018-12-17T13:14:32.309Z,4.00
2018-12-17T13:17:11.916Z,3.90
2018-12-17T13:19:45.802Z,3.90
2018-12-17T13:22:19.754Z,3.90
2018-12-17T13:24:54.661Z,3.90
2018-12-17T13:27:29.503Z,3.90
2018-12-17T13:30:05.221Z,3.90
2018-12-17T13:32:39.578Z,3.90
2018-12-17T13:35:13.486Z,3.80
2018-12-17T13:37:48.213Z,3.90
2018-12-17T13:40:22.235Z,3.80
2018-12-17T13:42:56.346Z,3.80
2018-12-17T13:45:30.357Z,3.80
2018-12-17T13:48:04.477Z,3.70
2018-12-17T13:50:39.137Z,3.70
2018-12-17T13:53:19.762Z,3.70
2018-12-17T13:55:54.077Z,3.70
2018-12-17T13:58:28.149Z,3.70
2018-12-17T14:01:02.087Z,3.70
2018-12-17T14:03:36.524Z,3.70
2018-12-17T14:06:10.566Z,3.70
2018-12-17T14:08:44.594Z,3.70
2018-12-17T14:11:18.620Z,3.70
2018-12-17T14:13:53.837Z,3.70
2018-12-17T14:16:33.645Z,3.60
2018-12-17T14:19:13.273Z,3.60
2018-12-17T14:21:58.618Z,3.50
2018-12-17T14:24:32.534Z,3.50
2018-12-17T14:27:06.471Z,3.50
2018-12-17T14:29:40.709Z,3.60
2018-12-17T14:32:14.910Z,3.50
2018-12-17T14:34:49.242Z,3.50
2018-12-17T14:37:24.073Z,3.50
2018-12-17T14:39:58.043Z,3.50
2018-12-17T14:42:32.406Z,3.40
2018-12-17T14:45:07.662Z,3.40
2018-12-17T14:47:42.657Z,3.50
2018-12-17T14:50:17.562Z,3.50
2018-12-17T14:52:53.437Z,3.50
2018-12-17T14:55:28.314Z,3.40
2018-12-17T14:58:02.534Z,3.40
2018-12-17T15:00:37.149Z,3.50
2018-12-17T15:03:13.307Z,3.40
2018-12-17T15:05:47.277Z,3.40
2018-12-17T15:08:21.215Z,3.40
2018-12-17T15:10:55.186Z,3.40
2018-12-17T15:13:30.255Z,3.40
2018-12-17T15:16:05.078Z,3.40
2018-12-17T15:18:39.261Z,3.40
2018-12-17T15:21:14.038Z,3.40
2018-12-17T15:23:49.849Z,3.50
2018-12-17T15:26:23.823Z,3.50
2018-12-17T15:28:57.855Z,3.50
2018-12-17T15:31:32.586Z,3.50
2018-12-17T15:34:06.610Z,3.50
2018-12-17T15:36:40.699Z,3.50
2018-12-17T15:39:14.694Z,3.50
2018-12-17T15:41:48.943Z,3.50
2018-12-17T15:44:22.973Z,3.60
2018-12-17T15:46:57.975Z,3.70
2018-12-17T15:49:34.490Z,3.60
2018-12-17T15:52:10.106Z,3.60
2018-12-17T15:54:44.941Z,3.50
2018-12-17T15:57:19.745Z,3.60
2018-12-17T15:59:53.886Z,3.60
2018-12-17T16:02:28.390Z,3.60
2018-12-17T16:04:59.106Z,3.60
2018-12-17T16:07:33.014Z,3.60
2018-12-17T16:10:07.181Z,3.60
2018-12-17T16:12:42.282Z,3.60
2018-12-17T16:15:17.099Z,3.60
2018-12-17T16:17:51.226Z,3.60
2018-12-17T16:20:25.262Z,3.50
2018-12-17T16:23:00.381Z,3.50
2018-12-17T16:25:35.178Z,3.40
2018-12-17T16:28:09.096Z,3.40
2018-12-17T16:30:43.365Z,3.40
2018-12-17T16:33:18.361Z,3.30
2018-12-17T16:35:53.117Z,3.30
2018-12-17T16:38:27.118Z,3.30
2018-12-17T16:41:01.361Z,3.20
2018-12-17T16:43:35.315Z,3.20
2018-12-17T16:46:09.633Z,3.30
2018-12-17T16:53:45.890Z,3.30
2018-12-17T16:56:20.610Z,3.30
2018-12-17T16:58:54.680Z,3.20
2018-12-17T17:01:28.602Z,3.20
2018-12-17T17:03:58.725Z,3.20
2018-12-17T17:06:32.938Z,3.20
2018-12-17T17:09:03.446Z,3.10
2018-12-17T17:11:37.485Z,3.10
2018-12-17T17:14:11.526Z,3.10
2018-12-17T17:16:45.603Z,3.00
2018-12-17T17:19:19.718Z,3.00
2018-12-17T17:21:53.709Z,3.00
2018-12-17T17:24:27.617Z,3.00
2018-12-17T17:27:02.457Z,3.00
2018-12-17T17:29:36.586Z,3.00
2018-12-17T17:32:12.042Z,2.90
2018-12-17T17:34:46.531Z,2.90
2018-12-17T17:37:20.683Z,2.90
2018-12-17T17:39:54.647Z,2.90
2018-12-17T17:42:30.705Z,2.90
2018-12-17T17:45:04.977Z,3.00
2018-12-17T17:47:39.114Z,3.00
2018-12-17T17:50:13.445Z,3.00
2018-12-17T17:52:48.293Z,3.00
2018-12-17T17:55:22.293Z,3.00
2018-12-17T17:57:56.441Z,3.00
2018-12-17T18:00:30.467Z,3.10
2018-12-17T18:03:05.358Z,3.20
2018-12-17T18:05:40.074Z,3.20
2018-12-17T18:08:14.194Z,3.20
2018-12-17T18:10:49.022Z,3.10
2018-12-17T18:13:23.541Z,3.10
2018-12-17T18:15:57.489Z,3.10
2018-12-17T18:18:31.517Z,3.10
2018-12-17T18:21:05.450Z,3.10
2018-12-17T18:23:39.578Z,3.10
2018-12-17T18:26:13.482Z,3.10
2018-12-17T18:28:47.701Z,3.10
2018-12-17T18:31:21.810Z,3.10
2018-12-17T18:33:57.868Z,3.10
2018-12-17T18:36:31.999Z,3.10
2018-12-17T18:39:06.175Z,3.10
2018-12-17T18:41:40.926Z,3.10
2018-12-17T18:44:14.858Z,3.10
2018-12-17T18:46:48.849Z,3.10
2018-12-17T18:49:23.162Z,3.10
2018-12-17T18:51:57.162Z,3.10
2018-12-17T18:54:31.989Z,3.10
2018-12-17T18:57:05.897Z,3.00
2018-12-17T18:59:39.965Z,3.00
2018-12-17T19:02:10.855Z,3.10
2018-12-17T19:04:45.674Z,3.00
2018-12-17T19:07:19.569Z,3.10
2018-12-17T19:09:53.706Z,3.10
2018-12-17T19:12:28.993Z,3.10
2018-12-17T19:15:03.567Z,3.20
2018-12-17T19:17:37.513Z,3.20
2018-12-17T19:20:11.553Z,3.30
2018-12-17T19:22:46.350Z,3.20
2018-12-17T19:25:21.201Z,3.10
2018-12-17T19:27:55.226Z,3.10
2018-12-17T19:30:29.157Z,3.00
2018-12-17T19:33:03.113Z,3.00
2018-12-17T19:35:37.990Z,3.00
2018-12-17T19:38:11.912Z,3.00
2018-12-17T19:40:46.781Z,3.00
2018-12-17T19:43:17.504Z,3.00
2018-12-17T19:45:51.603Z,2.90
2018-12-17T19:48:21.646Z,2.90
2018-12-17T19:50:56.465Z,2.90
2018-12-17T19:53:31.674Z,3.00
2018-12-17T19:56:05.641Z,2.90
2018-12-17T20:01:11.586Z,2.80
2018-12-17T20:03:45.513Z,2.80
2018-12-17T20:06:19.754Z,2.80
2018-12-17T20:08:53.773Z,2.80
2018-12-17T20:11:27.814Z,2.80
2018-12-17T20:14:01.909Z,2.80
2018-12-17T20:16:36.745Z,2.80
2018-12-17T20:19:11.572Z,2.80
2018-12-17T20:21:46.529Z,2.80
2018-12-17T20:24:21.257Z,2.80
2018-12-17T20:26:55.388Z,2.80
2018-12-17T20:29:29.526Z,2.80
2018-12-17T20:32:04.753Z,2.80
2018-12-17T20:34:39.715Z,2.70
2018-12-17T20:37:13.851Z,2.70
2018-12-17T20:39:47.953Z,2.70
2018-12-17T20:42:22.184Z,2.70
2018-12-17T20:44:56.989Z,2.60
2018-12-17T20:47:31.241Z,2.60
2018-12-17T20:50:06.285Z,2.60
2018-12-17T20:52:40.982Z,2.60
2018-12-17T20:55:14.918Z,2.50
2018-12-17T20:57:49.025Z,2.50
2018-12-17T21:00:23.389Z,2.50
2018-12-17T21:03:00.497Z,2.50
2018-12-17T21:05:34.598Z,2.50
2018-12-17T21:08:08.527Z,2.50
2018-12-17T21:13:17.577Z,2.30
2018-12-17T21:15:52.385Z,2.40
2018-12-17T21:18:26.321Z,2.30
2018-12-17T21:21:00.325Z,2.30
2018-12-17T21:23:35.803Z,2.30
2018-12-17T21:26:06.613Z,2.30
2018-12-17T21:28:40.673Z,2.30
2018-12-17T21:31:14.794Z,2.30
2018-12-17T21:33:49.769Z,2.30
2018-12-17T21:36:23.706Z,2.40
2018-12-17T21:38:57.620Z,2.40
2018-12-17T21:41:32.253Z,2.40
2018-12-17T21:44:06.439Z,2.40
2018-12-17T21:46:41.244Z,2.40
2018-12-17T21:49:15.245Z,2.40
2018-12-17T21:51:49.269Z,2.40
2018-12-17T21:54:23.389Z,2.40
2018-12-17T21:56:57.534Z,2.40
2018-12-17T21:59:31.549Z,2.40
2018-12-17T22:02:05.675Z,2.40
2018-12-17T22:04:40.476Z,2.40
2018-12-17T22:07:14.605Z,2.40
2018-12-17T22:09:49.414Z,2.40
2018-12-17T22:12:24.737Z,2.40
2018-12-17T22:14:59.168Z,2.40
2018-12-17T22:17:33.085Z,2.40
2018-12-17T22:20:07.831Z,2.40
2018-12-17T22:22:44.670Z,2.50
2018-12-17T22:25:18.692Z,2.70
2018-12-17T22:30:27.733Z,2.90
2018-12-17T22:33:02.753Z,2.90
2018-12-17T22:35:36.881Z,2.90
2018-12-17T22:38:11.132Z,2.90
2018-12-17T22:40:45.454Z,2.90
2018-12-17T22:43:19.606Z,2.90
2018-12-17T22:45:53.550Z,2.80
2018-12-17T22:48:28.408Z,2.80
2018-12-17T22:51:02.429Z,2.80
2018-12-17T22:53:38.524Z,2.70
2018-12-17T22:56:13.374Z,2.70
2018-12-17T22:58:47.415Z,2.70
2018-12-17T23:01:17.545Z,2.70
2018-12-17T23:03:53.533Z,2.80
2018-12-17T23:06:28.355Z,2.90
2018-12-17T23:11:41.437Z,3.00
2018-12-17T23:14:21.593Z,3.00
2018-12-17T23:19:32.138Z,3.10
2018-12-17T23:22:06.241Z,3.00
2018-12-17T23:24:40.354Z,3.00
2018-12-17T23:27:15.181Z,3.00
2018-12-17T23:29:49.299Z,3.00
2018-12-17T23:32:28.005Z,3.00
2018-12-17T23:35:02.187Z,2.90
2018-12-17T23:37:37.050Z,2.90
2018-12-17T23:40:11.096Z,2.90
2018-12-17T23:42:45.901Z,2.90
2018-12-17T23:45:20.760Z,2.90
2018-12-17T23:47:54.843Z,2.80
2018-12-17T23:50:28.789Z,2.80
2018-12-17T23:53:04.710Z,2.90
2018-12-17T23:55:38.730Z,2.80
2018-12-17T23:58:12.654Z,2.90
